createdAt,value
2023-02-11T00:00:04.780Z,79.47
2023-02-11T00:00:41.028Z,77.27
2023-02-11T00:01:25.405Z,79.23
2023-02-11T00:01:57.240Z,86.87
2023-02-11T00:02:29.801Z,95.00
2023-02-11T00:03:01.658Z,81.03
2023-02-11T00:03:33.490Z,80.13
2023-02-11T00:04:06.977Z,79.03
2023-02-11T00:04:38.716Z,77.30
2023-02-11T00:05:10.920Z,75.77
2023-02-11T00:05:42.703Z,72.00
2023-02-11T00:06:14.804Z,64.97
2023-02-11T00:06:46.562Z,63.07
2023-02-11T00:07:18.324Z,60.07
2023-02-11T00:07:50.094Z,62.50
2023-02-11T00:08:21.839Z,63.60
2023-02-11T00:08:54.594Z,67.30
2023-02-11T00:09:26.378Z,70.50
2023-02-11T00:09:58.159Z,71.73
2023-02-11T00:10:29.871Z,73.40
2023-02-11T00:11:01.768Z,62.97
2023-02-11T00:11:34.538Z,60.63
2023-02-11T00:12:06.511Z,59.27
2023-02-11T00:12:38.703Z,59.07
2023-02-11T00:13:10.449Z,59.90
2023-02-11T00:13:43.724Z,63.00
2023-02-11T00:14:15.658Z,63.20
2023-02-11T00:14:47.688Z,64.63
2023-02-11T00:15:21.273Z,65.20
2023-02-11T00:15:54.221Z,62.77
2023-02-11T00:16:26.624Z,58.47
2023-02-11T00:16:58.587Z,61.37
2023-02-11T00:17:30.470Z,60.80
2023-02-11T00:18:02.264Z,63.47
2023-02-11T00:18:34.090Z,63.60
2023-02-11T00:19:06.764Z,62.53
2023-02-11T00:19:38.522Z,59.20
2023-02-11T00:20:10.559Z,56.63
2023-02-11T00:20:43.225Z,56.10
2023-02-11T00:21:17.938Z,58.13
2023-02-11T00:21:49.676Z,58.13
2023-02-11T00:22:21.557Z,59.00
2023-02-11T00:22:53.351Z,59.53
2023-02-11T00:23:25.271Z,60.33
2023-02-11T00:23:59.836Z,57.50
2023-02-11T00:24:31.682Z,60.30
2023-02-11T00:25:03.857Z,59.70
2023-02-11T00:25:41.066Z,60.57
2023-02-11T00:26:22.181Z,62.10
2023-02-11T00:26:53.920Z,57.70
2023-02-11T00:27:25.709Z,60.60
2023-02-11T00:27:57.645Z,61.07
2023-02-11T00:28:29.792Z,58.53
2023-02-11T00:29:02.619Z,56.83
2023-02-11T00:29:34.369Z,60.30
2023-02-11T00:30:06.633Z,60.97
2023-02-11T00:30:38.641Z,59.90
2023-02-11T00:31:11.119Z,58.70
2023-02-11T00:31:43.073Z,58.53
2023-02-11T00:32:14.957Z,60.50
2023-02-11T00:32:47.044Z,59.63
2023-02-11T00:33:18.891Z,59.93
2023-02-11T00:33:51.622Z,59.27
2023-02-11T00:34:23.852Z,58.83
2023-02-11T00:34:55.734Z,59.60
2023-02-11T00:35:27.880Z,62.40
2023-02-11T00:36:04.561Z,60.70
2023-02-11T00:36:36.322Z,61.63
2023-02-11T00:37:08.102Z,63.17
2023-02-11T00:37:39.976Z,62.70
2023-02-11T00:38:11.804Z,62.87
2023-02-11T00:38:44.944Z,66.40
2023-02-11T00:39:16.714Z,65.17
2023-02-11T00:39:50.208Z,61.97
2023-02-11T00:40:22.678Z,58.30
2023-02-11T00:40:54.476Z,62.47
2023-02-11T00:41:27.057Z,56.97
2023-02-11T00:41:59.244Z,55.03
2023-02-11T00:42:31.086Z,55.63
2023-02-11T00:43:02.852Z,55.73
2023-02-11T00:43:35.821Z,57.87
2023-02-11T00:44:07.660Z,59.70
2023-02-11T00:44:39.501Z,60.90
2023-02-11T00:45:12.526Z,66.87
2023-02-11T00:45:44.309Z,65.70
2023-02-11T00:46:16.312Z,59.43
2023-02-11T00:46:48.233Z,57.93
2023-02-11T00:47:19.954Z,60.00
2023-02-11T00:47:51.742Z,64.63
2023-02-11T00:48:23.515Z,68.50
2023-02-11T00:48:57.883Z,72.43
2023-02-11T00:49:29.763Z,71.37
2023-02-11T00:50:02.347Z,71.53
2023-02-11T00:50:34.116Z,80.27
2023-02-11T00:51:06.847Z,89.83
2023-02-11T00:51:38.688Z,94.37
2023-02-11T00:52:10.537Z,94.40
2023-02-11T00:52:42.560Z,90.27
2023-02-11T00:53:14.357Z,97.37
2023-02-11T00:53:46.183Z,102.67
2023-02-11T00:54:17.958Z,110.27
2023-02-11T00:54:49.808Z,111.37
2023-02-11T00:55:21.618Z,108.97
2023-02-11T00:55:53.562Z,112.07
2023-02-11T00:56:25.490Z,113.93
2023-02-11T00:56:57.219Z,118.37
2023-02-11T00:57:28.986Z,122.53
2023-02-11T00:58:00.710Z,124.40
2023-02-11T00:58:32.494Z,124.27
2023-02-11T00:59:04.480Z,119.63
2023-02-11T00:59:36.399Z,118.03
2023-02-11T01:00:10.025Z,121.20
2023-02-11T01:00:41.758Z,121.37
2023-02-11T01:01:14.074Z,122.20
2023-02-11T01:01:45.870Z,122.60
2023-02-11T01:02:18.103Z,124.23
2023-02-11T01:02:49.898Z,123.07
2023-02-11T01:03:21.732Z,122.63
2023-02-11T01:03:53.555Z,126.93
2023-02-11T01:04:25.443Z,126.83
2023-02-11T01:04:58.596Z,128.07
2023-02-11T01:05:30.511Z,120.30
2023-02-11T01:06:02.383Z,100.87
2023-02-11T01:06:34.204Z,99.73
2023-02-11T01:07:06.198Z,110.03
2023-02-11T01:07:37.984Z,117.03
2023-02-11T01:08:09.835Z,119.50
2023-02-11T01:08:41.818Z,113.30
2023-02-11T01:09:13.573Z,104.67
2023-02-11T01:09:45.402Z,104.90
2023-02-11T01:10:17.407Z,112.33
2023-02-11T01:11:17.180Z,116.83
2023-02-11T01:11:48.945Z,113.23
2023-02-11T01:12:20.906Z,115.73
2023-02-11T01:12:52.750Z,103.17
2023-02-11T01:13:26.146Z,112.43
2023-02-11T01:13:57.877Z,113.80
2023-02-11T01:14:29.672Z,113.70
2023-02-11T01:15:01.469Z,117.60
2023-02-11T01:15:33.582Z,122.37
2023-02-11T01:16:10.237Z,121.13
2023-02-11T01:16:42.091Z,127.87
2023-02-11T01:17:13.885Z,130.40
2023-02-11T01:17:45.878Z,134.30
2023-02-11T01:18:17.843Z,135.47
2023-02-11T01:18:49.599Z,135.57
2023-02-11T01:19:21.415Z,136.47
2023-02-11T01:19:53.215Z,131.67
2023-02-11T01:20:28.570Z,135.07
2023-02-11T01:21:00.416Z,140.00
2023-02-11T01:21:32.371Z,141.90
2023-02-11T01:22:05.036Z,139.77
2023-02-11T01:22:39.645Z,142.97
2023-02-11T01:23:11.814Z,142.43
2023-02-11T01:23:43.653Z,141.20
2023-02-11T01:24:15.410Z,143.83
2023-02-11T01:24:47.497Z,140.73
2023-02-11T01:25:19.472Z,143.43
2023-02-11T01:25:51.545Z,140.50
2023-02-11T01:26:23.492Z,131.70
2023-02-11T01:26:55.443Z,135.20
2023-02-11T01:27:27.200Z,140.00
2023-02-11T01:27:59.037Z,138.50
2023-02-11T01:28:31.727Z,140.27
2023-02-11T01:29:03.875Z,140.07
2023-02-11T01:29:35.567Z,138.57
2023-02-11T01:30:09.682Z,139.60
2023-02-11T01:30:41.456Z,135.67
2023-02-11T01:31:14.249Z,135.33
2023-02-11T01:31:46.120Z,137.43
2023-02-11T01:32:18.010Z,135.70
2023-02-11T01:32:49.821Z,133.77
2023-02-11T01:33:22.669Z,131.53
2023-02-11T01:33:54.450Z,132.33
2023-02-11T01:34:26.217Z,134.07
2023-02-11T01:34:58.015Z,136.13
2023-02-11T01:35:29.877Z,135.10
2023-02-11T01:36:03.599Z,134.87
2023-02-11T01:36:35.321Z,136.27
2023-02-11T01:37:07.309Z,135.20
2023-02-11T01:37:39.185Z,133.87
2023-02-11T01:38:26.211Z,130.40
2023-02-11T01:38:57.990Z,127.00
2023-02-11T01:39:34.106Z,128.07
2023-02-11T01:40:08.568Z,131.17
2023-02-11T01:40:40.367Z,132.57
2023-02-11T01:41:14.909Z,134.57
2023-02-11T01:41:46.691Z,133.37
2023-02-11T01:42:20.892Z,132.63
2023-02-11T01:42:52.715Z,126.97
2023-02-11T01:43:26.446Z,127.80
2023-02-11T01:43:58.262Z,133.63
2023-02-11T01:44:37.011Z,130.07
2023-02-11T01:45:46.312Z,129.27
2023-02-11T01:46:24.009Z,138.33
2023-02-11T01:46:55.959Z,135.30
2023-02-11T01:47:27.715Z,132.80
2023-02-11T01:48:02.522Z,133.43
2023-02-11T01:48:39.001Z,134.17
2023-02-11T01:49:21.841Z,134.87
2023-02-11T01:49:59.193Z,133.27
2023-02-11T01:50:31.830Z,136.57
2023-02-11T01:51:49.581Z,137.30
2023-02-11T01:52:31.214Z,141.00
2023-02-11T01:53:22.987Z,138.07
2023-02-11T01:54:15.718Z,145.47
2023-02-11T01:55:10.558Z,152.53
2023-02-11T01:56:01.164Z,152.00
2023-02-11T01:56:55.879Z,152.33
2023-02-11T01:57:31.473Z,151.13
2023-02-11T01:58:05.388Z,152.20
2023-02-11T01:58:42.038Z,148.40
2023-02-11T01:59:22.752Z,143.70
2023-02-11T02:00:10.303Z,136.53
2023-02-11T02:00:43.144Z,132.37
2023-02-11T02:01:23.391Z,137.33
2023-02-11T02:02:00.946Z,141.37
2023-02-11T02:03:08.115Z,137.90
2023-02-11T02:03:45.482Z,131.80
2023-02-11T02:04:19.849Z,137.70
2023-02-11T02:04:58.826Z,137.63
2023-02-11T02:05:37.265Z,135.43
2023-02-11T02:06:45.954Z,139.73
2023-02-11T02:07:31.459Z,138.97
2023-02-11T02:08:09.188Z,138.47
2023-02-11T02:09:01.102Z,139.83
2023-02-11T02:09:40.514Z,141.50
2023-02-11T02:10:19.612Z,137.87
2023-02-11T02:10:56.630Z,138.63
2023-02-11T02:11:28.390Z,141.07
2023-02-11T02:12:00.449Z,136.47
2023-02-11T02:12:32.283Z,140.50
2023-02-11T02:13:04.228Z,142.13
2023-02-11T02:13:36.496Z,141.13
2023-02-11T02:14:08.248Z,139.00
2023-02-11T02:14:41.824Z,140.57
2023-02-11T02:15:29.575Z,139.67
2023-02-11T02:16:04.770Z,142.90
2023-02-11T02:16:38.037Z,140.87
2023-02-11T02:17:27.719Z,138.47
2023-02-11T02:18:07.276Z,127.77
2023-02-11T02:19:00.609Z,128.57
2023-02-11T02:20:02.669Z,133.27
2023-02-11T02:21:09.011Z,130.03
2023-02-11T02:22:14.300Z,130.67
2023-02-11T02:23:17.243Z,139.33
2023-02-11T02:24:22.255Z,135.03
2023-02-11T02:25:01.194Z,140.73
2023-02-11T02:25:51.214Z,138.43
2023-02-11T02:27:04.126Z,136.60
2023-02-11T02:28:03.039Z,136.33
2023-02-11T02:29:14.673Z,137.90
2023-02-11T02:30:03.772Z,126.53
2023-02-11T02:31:09.064Z,122.00
2023-02-11T02:31:50.081Z,130.60
2023-02-11T02:32:43.688Z,130.13
2023-02-11T02:33:34.787Z,137.00
2023-02-11T02:34:48.678Z,133.93
2023-02-11T02:35:52.628Z,116.57
2023-02-11T02:36:34.492Z,118.53
2023-02-11T02:37:31.671Z,127.40
2023-02-11T02:38:14.505Z,136.27
2023-02-11T02:38:57.901Z,131.60
2023-02-11T02:39:34.655Z,134.63
2023-02-11T02:40:36.944Z,138.03
2023-02-11T02:41:13.131Z,141.00
2023-02-11T02:41:47.306Z,133.33
2023-02-11T02:42:21.489Z,133.13
2023-02-11T02:42:55.127Z,130.77
2023-02-11T02:43:27.947Z,129.10
2023-02-11T02:44:00.253Z,128.63
2023-02-11T02:44:32.502Z,130.43
2023-02-11T02:45:04.920Z,137.63
2023-02-11T02:45:36.827Z,136.10
2023-02-11T02:46:27.221Z,136.80
2023-02-11T02:46:59.111Z,133.77
2023-02-11T02:47:30.893Z,134.27
2023-02-11T02:48:02.626Z,134.47
2023-02-11T02:48:38.099Z,139.57
2023-02-11T02:49:15.031Z,135.70
2023-02-11T02:49:46.795Z,133.20
2023-02-11T02:50:30.295Z,131.27
2023-02-11T02:51:32.230Z,136.80
2023-02-11T02:52:56.179Z,138.40
2023-02-11T02:53:38.848Z,125.57
2023-02-11T02:54:22.412Z,127.70
2023-02-11T02:55:28.234Z,132.77
2023-02-11T02:56:32.772Z,123.47
2023-02-11T02:57:32.799Z,123.63
2023-02-11T02:58:07.483Z,119.47
2023-02-11T02:58:48.009Z,119.40
2023-02-11T02:59:25.452Z,125.03
2023-02-11T03:00:21.922Z,125.83
2023-02-11T03:01:20.915Z,126.23
2023-02-11T03:02:24.915Z,124.37
2023-02-11T03:03:15.813Z,123.50
2023-02-11T03:04:06.586Z,122.50
2023-02-11T03:04:53.006Z,125.83
2023-02-11T03:05:57.295Z,122.80
2023-02-11T03:06:44.738Z,122.10
2023-02-11T03:08:05.776Z,124.00
2023-02-11T03:08:57.138Z,123.80
2023-02-11T03:09:39.198Z,124.67
2023-02-11T03:10:41.270Z,127.57
2023-02-11T03:11:18.676Z,125.67
2023-02-11T03:11:50.560Z,122.67
2023-02-11T03:12:24.913Z,123.17
2023-02-11T03:12:57.788Z,123.77
2023-02-11T03:13:34.085Z,126.37
2023-02-11T03:14:10.773Z,128.80
2023-02-11T03:14:42.751Z,126.50
2023-02-11T03:15:17.697Z,126.80
2023-02-11T03:15:54.120Z,130.03
2023-02-11T03:16:28.513Z,123.27
2023-02-11T03:17:05.240Z,125.60
2023-02-11T03:17:42.852Z,125.90
2023-02-11T03:18:19.263Z,124.60
2023-02-11T03:19:10.559Z,127.07
2023-02-11T03:19:46.368Z,125.27
2023-02-11T03:20:22.492Z,127.90
2023-02-11T03:20:56.328Z,128.17
2023-02-11T03:21:32.645Z,132.90
2023-02-11T03:22:11.981Z,130.47
2023-02-11T03:22:52.752Z,122.07
2023-02-11T03:23:39.014Z,124.23
2023-02-11T03:24:30.698Z,121.50
2023-02-11T03:25:03.381Z,118.77
2023-02-11T03:25:42.146Z,114.33
2023-02-11T03:26:25.516Z,117.73
2023-02-11T03:27:03.790Z,121.70
2023-02-11T03:27:41.626Z,121.27
2023-02-11T03:28:39.197Z,125.80
2023-02-11T03:29:33.126Z,120.40
2023-02-11T03:30:09.952Z,121.07
2023-02-11T03:31:01.240Z,123.20
2023-02-11T03:32:06.007Z,121.07
2023-02-11T03:32:52.555Z,104.03
2023-02-11T03:33:35.813Z,97.03
2023-02-11T03:34:10.027Z,110.20
2023-02-11T03:34:44.769Z,101.50
2023-02-11T03:35:32.770Z,98.23
2023-02-11T03:36:15.540Z,109.23
2023-02-11T03:36:58.974Z,104.23
2023-02-11T03:37:39.916Z,97.90
2023-02-11T03:38:39.410Z,106.87
2023-02-11T03:39:16.094Z,113.63
2023-02-11T03:40:03.597Z,98.00
2023-02-11T03:40:41.578Z,94.07
2023-02-11T03:41:17.800Z,109.50
2023-02-11T03:41:52.790Z,105.43
2023-02-11T03:42:30.906Z,100.23
2023-02-11T03:43:20.195Z,100.07
2023-02-11T03:43:58.324Z,103.77
2023-02-11T03:44:37.027Z,93.37
2023-02-11T03:45:14.014Z,105.47
2023-02-11T03:45:51.189Z,109.40
2023-02-11T03:46:31.052Z,114.77
2023-02-11T03:47:08.074Z,116.03
2023-02-11T03:47:46.423Z,115.60
2023-02-11T03:48:31.215Z,110.57
2023-02-11T03:49:11.655Z,106.37
2023-02-11T03:49:49.306Z,110.57
2023-02-11T03:50:23.396Z,113.43
2023-02-11T03:50:58.769Z,113.93
2023-02-11T03:51:33.022Z,112.53
2023-02-11T03:52:07.903Z,114.03
2023-02-11T03:52:39.948Z,114.67
2023-02-11T03:53:14.609Z,114.97
2023-02-11T03:53:47.756Z,104.27
2023-02-11T03:54:29.307Z,103.33
2023-02-11T03:55:06.079Z,96.70
2023-02-11T03:55:40.486Z,91.23
2023-02-11T03:56:21.653Z,105.90
2023-02-11T03:56:56.970Z,102.97
2023-02-11T03:57:28.886Z,94.87
2023-02-11T03:58:01.119Z,112.07
2023-02-11T03:58:32.856Z,115.27
2023-02-11T03:59:04.700Z,100.63
2023-02-11T03:59:56.086Z,93.13
2023-02-11T04:00:37.194Z,88.40
2023-02-11T04:01:10.004Z,87.57
2023-02-11T04:01:42.042Z,81.73
2023-02-11T04:02:13.778Z,91.63
2023-02-11T04:02:45.838Z,105.87
2023-02-11T04:03:17.812Z,112.53
2023-02-11T04:03:49.684Z,117.43
2023-02-11T04:04:21.507Z,116.93
2023-02-11T04:04:53.630Z,110.03
2023-02-11T04:05:25.774Z,93.23
2023-02-11T04:05:57.567Z,85.70
2023-02-11T04:06:29.343Z,101.97
2023-02-11T04:07:01.058Z,110.37
2023-02-11T04:07:33.263Z,111.77
2023-02-11T04:08:05.577Z,107.07
2023-02-11T04:08:37.404Z,106.53
2023-02-11T04:09:10.289Z,111.37
2023-02-11T04:09:42.379Z,109.20
2023-02-11T04:10:14.408Z,110.90
2023-02-11T04:10:46.348Z,112.43
2023-02-11T04:11:18.182Z,112.57
2023-02-11T04:11:49.943Z,114.83
2023-02-11T04:12:22.224Z,111.10
2023-02-11T04:12:54.032Z,108.90
2023-02-11T04:13:27.259Z,113.13
2023-02-11T04:13:58.996Z,110.93
2023-02-11T04:14:30.736Z,110.57
2023-02-11T04:15:02.478Z,108.20
2023-02-11T04:15:34.430Z,112.10
2023-02-11T04:16:06.320Z,112.97
2023-02-11T04:16:38.149Z,113.10
2023-02-11T04:17:11.064Z,113.37
2023-02-11T04:17:43.176Z,113.77
2023-02-11T04:18:15.116Z,110.23
2023-02-11T04:18:46.893Z,105.07
2023-02-11T04:19:18.847Z,90.17
2023-02-11T04:19:50.638Z,90.87
2023-02-11T04:20:22.421Z,93.67
2023-02-11T04:20:54.149Z,98.00
2023-02-11T04:21:25.954Z,111.37
2023-02-11T04:21:57.923Z,109.50
2023-02-11T04:22:30.370Z,104.43
2023-02-11T04:23:02.158Z,93.97
2023-02-11T04:23:33.970Z,79.53
2023-02-11T04:24:05.904Z,92.73
2023-02-11T04:24:37.774Z,110.20
2023-02-11T04:25:10.083Z,112.50
2023-02-11T04:25:42.978Z,107.23
2023-02-11T04:26:14.887Z,111.67
2023-02-11T04:26:46.747Z,111.20
2023-02-11T04:27:18.564Z,105.17
2023-02-11T04:27:50.349Z,102.33
2023-02-11T04:28:22.266Z,96.87
2023-02-11T04:28:54.052Z,101.13
2023-02-11T04:29:25.795Z,97.70
2023-02-11T04:29:57.558Z,87.13
2023-02-11T04:30:29.304Z,82.73
2023-02-11T04:31:01.120Z,76.80
2023-02-11T04:31:33.062Z,86.73
2023-02-11T04:32:05.153Z,81.27
2023-02-11T04:32:37.019Z,75.03
2023-02-11T04:33:08.790Z,77.23
2023-02-11T04:33:40.604Z,84.33
2023-02-11T04:34:12.562Z,83.20
2023-02-11T04:34:44.670Z,81.47
2023-02-11T04:35:16.597Z,80.40
2023-02-11T04:35:48.812Z,74.37
2023-02-11T04:36:20.876Z,74.57
2023-02-11T04:36:52.654Z,85.90
2023-02-11T04:37:24.493Z,90.13
2023-02-11T04:37:56.328Z,86.97
2023-02-11T04:38:28.212Z,77.00
2023-02-11T04:39:00.044Z,72.53
2023-02-11T04:39:31.870Z,75.40
2023-02-11T04:40:04.067Z,76.63
2023-02-11T04:40:35.876Z,78.73
2023-02-11T04:41:07.655Z,85.37
2023-02-11T04:41:39.463Z,87.07
2023-02-11T04:42:11.331Z,84.70
2023-02-11T04:42:43.275Z,84.67
2023-02-11T04:43:15.168Z,82.37
2023-02-11T04:43:46.922Z,80.70
2023-02-11T04:44:18.699Z,83.63
2023-02-11T04:44:50.509Z,84.57
2023-02-11T04:45:22.285Z,86.03
2023-02-11T04:45:58.805Z,88.47
2023-02-11T04:46:30.902Z,91.17
2023-02-11T04:47:02.684Z,95.00
2023-02-11T04:47:34.798Z,94.60
2023-02-11T04:48:06.560Z,93.90
2023-02-11T04:48:38.353Z,93.60
2023-02-11T04:49:14.212Z,96.70
2023-02-11T04:49:46.024Z,97.50
2023-02-11T04:50:17.906Z,97.93
2023-02-11T04:50:49.654Z,97.47
2023-02-11T04:51:21.437Z,93.27
2023-02-11T04:51:53.225Z,95.60
2023-02-11T04:52:25.064Z,101.57
2023-02-11T04:52:57.060Z,102.77
2023-02-11T04:53:28.873Z,101.03
2023-02-11T04:54:00.692Z,96.07
2023-02-11T04:54:32.506Z,95.47
2023-02-11T04:55:04.663Z,96.60
2023-02-11T04:55:36.455Z,95.67
2023-02-11T04:56:08.407Z,97.97
2023-02-11T04:56:40.263Z,98.20
2023-02-11T04:57:12.026Z,97.70
2023-02-11T04:57:43.871Z,95.43
2023-02-11T04:58:15.632Z,95.13
2023-02-11T04:58:47.435Z,96.10
2023-02-11T04:59:19.180Z,97.23
2023-02-11T04:59:51.158Z,102.10
2023-02-11T05:00:23.076Z,104.97
2023-02-11T05:00:54.912Z,115.53
2023-02-11T05:01:26.809Z,119.23
2023-02-11T05:01:58.671Z,111.00
2023-02-11T05:02:30.375Z,108.63
2023-02-11T05:03:02.103Z,106.93
2023-02-11T05:03:34.007Z,106.60
2023-02-11T05:04:05.819Z,114.70
2023-02-11T05:04:37.618Z,113.57
2023-02-11T05:05:09.413Z,107.63
2023-02-11T05:05:42.668Z,105.27
2023-02-11T05:06:14.476Z,109.27
2023-02-11T05:06:46.323Z,112.50
2023-02-11T05:07:18.115Z,110.57
2023-02-11T05:07:49.942Z,110.03
2023-02-11T05:08:21.647Z,107.70
2023-02-11T05:08:53.370Z,110.30
2023-02-11T05:09:25.245Z,110.23
2023-02-11T05:09:56.994Z,116.33
2023-02-11T05:10:28.754Z,119.17
2023-02-11T05:11:02.280Z,124.37
2023-02-11T05:11:34.464Z,125.03
2023-02-11T05:12:06.464Z,122.33
2023-02-11T05:12:38.276Z,117.50
2023-02-11T05:13:09.994Z,115.73
2023-02-11T05:13:41.729Z,115.63
2023-02-11T05:14:13.466Z,111.73
2023-02-11T05:14:45.327Z,111.37
2023-02-11T05:15:17.204Z,113.13
2023-02-11T05:15:49.403Z,110.73
2023-02-11T05:16:21.618Z,110.00
2023-02-11T05:16:53.503Z,112.03
2023-02-11T05:17:25.274Z,114.30
2023-02-11T05:17:57.023Z,112.83
2023-02-11T05:18:28.734Z,108.23
2023-02-11T05:19:00.503Z,107.80
2023-02-11T05:19:32.458Z,112.07
2023-02-11T05:20:04.502Z,110.97
2023-02-11T05:20:38.948Z,106.27
2023-02-11T05:21:14.213Z,107.20
2023-02-11T05:22:01.365Z,113.37
2023-02-11T05:22:33.456Z,115.70
2023-02-11T05:23:05.217Z,107.90
2023-02-11T05:23:37.590Z,109.23
2023-02-11T05:24:09.447Z,117.90
2023-02-11T05:24:41.286Z,113.77
2023-02-11T05:25:13.272Z,116.17
2023-02-11T05:25:44.998Z,115.47
2023-02-11T05:26:17.568Z,111.33
2023-02-11T05:26:49.474Z,107.80
2023-02-11T05:27:21.400Z,106.73
2023-02-11T05:27:53.146Z,109.53
2023-02-11T05:28:25.087Z,109.80
2023-02-11T05:28:56.964Z,111.97
2023-02-11T05:29:28.862Z,113.57
2023-02-11T05:30:00.625Z,105.70
2023-02-11T05:30:33.103Z,100.53
2023-02-11T05:31:07.867Z,105.73
2023-02-11T05:31:39.667Z,107.50
2023-02-11T05:32:12.258Z,106.00
2023-02-11T05:32:44.030Z,110.90
2023-02-11T05:33:15.832Z,111.37
2023-02-11T05:33:47.659Z,106.83
2023-02-11T05:34:19.663Z,113.57
2023-02-11T05:34:51.429Z,110.90
2023-02-11T05:35:23.319Z,122.23
2023-02-11T05:36:07.792Z,124.30
2023-02-11T05:36:39.574Z,119.17
2023-02-11T05:37:11.488Z,115.40
2023-02-11T05:37:43.633Z,114.07
2023-02-11T05:38:15.424Z,104.63
2023-02-11T05:38:47.247Z,98.20
2023-02-11T05:39:19.097Z,95.50
2023-02-11T05:39:50.822Z,95.03
2023-02-11T05:40:22.598Z,98.00
2023-02-11T05:40:54.544Z,98.67
2023-02-11T05:41:26.389Z,102.67
2023-02-11T05:41:58.143Z,104.03
2023-02-11T05:42:29.874Z,112.23
2023-02-11T05:43:01.719Z,111.60
2023-02-11T05:43:35.445Z,105.87
2023-02-11T05:44:07.265Z,102.63
2023-02-11T05:44:39.188Z,102.40
2023-02-11T05:45:11.036Z,98.43
2023-02-11T05:45:42.809Z,98.00
2023-02-11T05:46:14.549Z,94.87
2023-02-11T05:46:46.493Z,98.87
2023-02-11T05:47:18.351Z,97.10
2023-02-11T05:47:50.149Z,92.80
2023-02-11T05:48:22.086Z,92.50
2023-02-11T05:48:54.140Z,103.03
2023-02-11T05:49:26.060Z,109.43
2023-02-11T05:49:59.010Z,110.27
2023-02-11T05:50:30.755Z,104.73
2023-02-11T05:51:02.522Z,95.00
2023-02-11T05:51:34.288Z,96.90
2023-02-11T05:52:06.168Z,92.67
2023-02-11T05:52:37.967Z,101.37
2023-02-11T05:53:09.994Z,134.93
2023-02-11T05:53:42.006Z,159.23
2023-02-11T05:54:13.832Z,162.07
2023-02-11T05:54:45.624Z,137.10
2023-02-11T05:55:17.496Z,129.20
2023-02-11T05:55:49.486Z,126.70
2023-02-11T05:56:21.575Z,120.27
2023-02-11T05:56:53.878Z,116.57
2023-02-11T05:57:25.704Z,106.63
2023-02-11T05:57:57.771Z,103.60
2023-02-11T05:58:29.594Z,107.00
2023-02-11T05:59:01.525Z,103.97
2023-02-11T05:59:33.377Z,98.83
2023-02-11T06:00:06.330Z,102.80
2023-02-11T06:00:38.302Z,103.57
2023-02-11T06:01:10.115Z,101.13
2023-02-11T06:01:42.384Z,101.97
2023-02-11T06:02:14.269Z,103.70
2023-02-11T06:02:46.099Z,104.80
2023-02-11T06:03:17.890Z,107.13
2023-02-11T06:03:51.557Z,106.27
2023-02-11T06:04:23.422Z,107.67
2023-02-11T06:04:55.315Z,109.63
2023-02-11T06:05:27.161Z,105.07
2023-02-11T06:05:58.953Z,104.97
2023-02-11T06:06:34.386Z,108.60
2023-02-11T06:07:06.254Z,111.67
2023-02-11T06:07:38.223Z,111.53
2023-02-11T06:08:10.075Z,110.20
2023-02-11T06:08:41.832Z,108.93
2023-02-11T06:09:13.560Z,116.30
2023-02-11T06:09:45.862Z,116.90
2023-02-11T06:10:17.963Z,110.70
2023-02-11T06:10:49.765Z,106.90
2023-02-11T06:11:21.539Z,100.67
2023-02-11T06:11:53.283Z,100.43
2023-02-11T06:12:25.224Z,99.83
2023-02-11T06:12:56.981Z,102.97
2023-02-11T06:13:28.697Z,105.27
2023-02-11T06:14:01.600Z,102.90
2023-02-11T06:14:34.292Z,102.37
2023-02-11T06:15:06.739Z,104.50
2023-02-11T06:15:38.542Z,110.77
2023-02-11T06:16:10.750Z,109.90
2023-02-11T06:16:42.557Z,109.93
2023-02-11T06:17:15.661Z,108.57
2023-02-11T06:17:47.576Z,109.77
2023-02-11T06:18:19.484Z,116.77
2023-02-11T06:18:51.350Z,117.50
2023-02-11T06:19:23.070Z,116.23
2023-02-11T06:19:54.804Z,114.47
2023-02-11T06:20:26.701Z,115.73
2023-02-11T06:20:58.457Z,116.63
2023-02-11T06:21:42.929Z,117.00
2023-02-11T06:22:15.575Z,115.33
2023-02-11T06:22:47.344Z,112.97
2023-02-11T06:23:19.177Z,109.87
2023-02-11T06:23:50.949Z,109.17
2023-02-11T06:24:47.707Z,107.67
2023-02-11T06:25:15.244Z,108.80
2023-02-11T06:25:47.175Z,111.27
2023-02-11T06:26:21.892Z,113.87
2023-02-11T06:26:53.694Z,105.40
2023-02-11T06:27:25.456Z,107.67
2023-02-11T06:27:57.540Z,106.57
2023-02-11T06:28:31.403Z,110.63
2023-02-11T06:29:03.755Z,422.10
2023-02-11T06:29:36.565Z,350.47
2023-02-11T06:30:09.167Z,433.40
2023-02-11T06:30:41.343Z,279.00
2023-02-11T06:31:13.411Z,221.93
2023-02-11T06:31:45.293Z,223.40
2023-02-11T06:32:39.431Z,206.40
2023-02-11T06:33:10.030Z,167.63
2023-02-11T06:33:42.424Z,181.10
2023-02-11T06:34:14.285Z,168.53
2023-02-11T06:34:46.566Z,157.40
2023-02-11T06:35:18.510Z,117.63
2023-02-11T06:35:50.438Z,116.00
2023-02-11T06:36:23.358Z,114.63
2023-02-11T06:36:55.219Z,112.27
2023-02-11T06:37:27.148Z,109.03
2023-02-11T06:37:59.473Z,108.40
2023-02-11T06:38:31.557Z,117.10
2023-02-11T06:39:03.879Z,117.43
2023-02-11T06:39:35.782Z,107.53
2023-02-11T06:40:07.881Z,102.27
2023-02-11T06:40:39.762Z,115.40
2023-02-11T06:41:13.319Z,126.10
2023-02-11T06:41:45.175Z,120.70
2023-02-11T06:42:17.447Z,110.37
2023-02-11T06:42:50.142Z,107.13
2023-02-11T06:43:22.330Z,114.33
2023-02-11T06:43:54.935Z,117.93
2023-02-11T06:44:29.088Z,119.23
2023-02-11T06:45:02.804Z,118.10
2023-02-11T06:45:34.639Z,117.47
2023-02-11T06:46:07.078Z,120.93
2023-02-11T06:46:39.302Z,121.60
2023-02-11T06:47:11.406Z,115.33
2023-02-11T06:47:43.270Z,116.10
2023-02-11T06:48:15.648Z,116.73
2023-02-11T06:48:47.465Z,118.10
2023-02-11T06:49:19.301Z,119.43
2023-02-11T06:49:51.040Z,117.43
2023-02-11T06:50:22.818Z,123.13
2023-02-11T06:50:54.649Z,118.70
2023-02-11T06:51:26.573Z,116.47
2023-02-11T06:51:58.305Z,119.67
2023-02-11T06:52:30.174Z,117.70
2023-02-11T06:53:02.058Z,118.33
2023-02-11T06:53:39.462Z,113.30
2023-02-11T06:54:13.050Z,111.40
2023-02-11T06:54:44.890Z,108.53
2023-02-11T06:55:16.910Z,106.40
2023-02-11T06:55:48.853Z,106.83
2023-02-11T06:56:23.488Z,106.87
2023-02-11T06:56:55.290Z,106.70
2023-02-11T06:57:26.999Z,110.10
2023-02-11T06:57:58.780Z,112.03
2023-02-11T06:58:30.587Z,108.80
2023-02-11T06:59:03.552Z,111.07
2023-02-11T06:59:35.306Z,120.20
2023-02-11T07:00:07.878Z,130.47
2023-02-11T07:00:39.718Z,133.60
2023-02-11T07:01:15.153Z,133.67
2023-02-11T07:01:47.893Z,132.37
2023-02-11T07:02:21.035Z,134.30
2023-02-11T07:02:53.102Z,131.60
2023-02-11T07:03:25.440Z,127.67
2023-02-11T07:03:57.401Z,128.97
2023-02-11T07:04:29.325Z,128.90
2023-02-11T07:05:01.634Z,129.80
2023-02-11T07:05:34.468Z,128.73
2023-02-11T07:06:08.319Z,122.43
2023-02-11T07:06:40.771Z,117.20
2023-02-11T07:07:12.566Z,113.93
2023-02-11T07:07:44.357Z,110.93
2023-02-11T07:08:16.249Z,111.67
2023-02-11T07:08:48.722Z,110.57
2023-02-11T07:09:20.819Z,111.57
2023-02-11T07:09:52.582Z,109.90
2023-02-11T07:10:24.356Z,118.07
2023-02-11T07:10:56.349Z,120.33
2023-02-11T07:11:30.185Z,120.77
2023-02-11T07:12:02.238Z,121.87
2023-02-11T07:12:34.104Z,119.27
2023-02-11T07:13:06.050Z,119.63
2023-02-11T07:13:38.008Z,114.13
2023-02-11T07:14:10.788Z,111.33
2023-02-11T07:14:42.788Z,111.53
2023-02-11T07:15:14.585Z,116.00
2023-02-11T07:15:46.497Z,111.03
2023-02-11T07:16:19.822Z,112.63
2023-02-11T07:16:51.843Z,116.77
2023-02-11T07:17:23.663Z,121.43
2023-02-11T07:17:55.443Z,124.50
2023-02-11T07:18:27.271Z,123.73
2023-02-11T07:18:59.151Z,119.20
2023-02-11T07:19:31.053Z,116.77
2023-02-11T07:20:03.636Z,117.37
2023-02-11T07:20:36.735Z,117.13
2023-02-11T07:21:11.814Z,119.57
2023-02-11T07:21:43.606Z,123.43
2023-02-11T07:22:15.462Z,123.33
2023-02-11T07:22:47.179Z,129.13